sensor_id;sensor_type;location;lat;lon;timestamp;pressure;altitude;pressure_sealevel;temperature;humidity
60583;BME280;46415;47.536;19.066;2023-06-26T00:00:07;-18756.69;;;19.48;92.92
60583;BME280;46415;47.536;19.066;2023-06-26T00:03:10;-18757.22;;;19.50;92.33
60583;BME280;46415;47.536;19.066;2023-06-26T00:06:16;-18756.69;;;19.48;92.88
60583;BME280;46415;47.536;19.066;2023-06-26T00:09:19;-18754.63;;;19.40;93.25
60583;BME280;46415;47.536;19.066;2023-06-26T00:12:22;-18754.50;;;19.40;92.22
60583;BME280;46415;47.536;19.066;2023-06-26T00:15:25;-18754.09;;;19.38;92.05
60583;BME280;46415;47.536;19.066;2023-06-26T00:18:28;-18753.94;;;19.38;92.43
60583;BME280;46415;47.536;19.066;2023-06-26T00:21:30;-18754.63;;;19.40;91.38
60583;BME280;46415;47.536;19.066;2023-06-26T00:24:33;-18753.41;;;19.36;92.71
60583;BME280;46415;47.536;19.066;2023-06-26T00:27:36;-18752.59;;;19.33;93.46
60583;BME280;46415;47.536;19.066;2023-06-26T00:30:39;-18750.69;;;19.26;94.59
60583;BME280;46415;47.536;19.066;2023-06-26T00:33:42;-18748.38;;;19.17;96.34
60583;BME280;46415;47.536;19.066;2023-06-26T00:36:45;-18750.28;;;19.24;97.45
60583;BME280;46415;47.536;19.066;2023-06-26T00:39:47;-18748.78;;;19.18;99.19
60583;BME280;46415;47.536;19.066;2023-06-26T00:42:50;-18747.56;;;19.14;100.00
60583;BME280;46415;47.536;19.066;2023-06-26T00:45:53;-18748.78;;;19.18;100.00
60583;BME280;46415;47.536;19.066;2023-06-26T00:48:58;-18746.22;;;19.09;100.00
60583;BME280;46415;47.536;19.066;2023-06-26T00:52:02;-18746.06;;;19.08;100.00
60583;BME280;46415;47.536;19.066;2023-06-26T00:55:06;-18746.63;;;19.10;100.00
60583;BME280;46415;47.536;19.066;2023-06-26T00:58:11;-18745.41;;;19.06;100.00
60583;BME280;46415;47.536;19.066;2023-06-26T01:01:14;-18745.41;;;19.06;100.00
60583;BME280;46415;47.536;19.066;2023-06-26T01:04:20;-18744.31;;;19.02;100.00
60583;BME280;46415;47.536;19.066;2023-06-26T01:07:23;-18743.62;;;18.99;100.00
60583;BME280;46415;47.536;19.066;2023-06-26T01:10:26;-18742.13;;;18.94;100.00
60583;BME280;46415;47.536;19.066;2023-06-26T01:13:33;-18744.44;;;19.02;97.62
60583;BME280;46415;47.536;19.066;2023-06-26T01:16:38;-18742.53;;;18.95;99.63
60583;BME280;46415;47.536;19.066;2023-06-26T01:19:42;-18740.50;;;18.88;100.00
60583;BME280;46415;47.536;19.066;2023-06-26T01:23:18;-18740.38;;;18.87;98.24
60583;BME280;46415;47.536;19.066;2023-06-26T01:26:27;-18740.62;;;18.88;97.62
60583;BME280;46415;47.536;19.066;2023-06-26T01:29:32;-18735.59;;;18.69;99.29
60583;BME280;46415;47.536;19.066;2023-06-26T01:32:35;-18732.75;;;18.59;99.54
60583;BME280;46415;47.536;19.066;2023-06-26T01:35:39;-18731.66;;;18.55;100.00
60583;BME280;46415;47.536;19.066;2023-06-26T01:38:43;-18732.22;;;18.57;100.00
60583;BME280;46415;47.536;19.066;2023-06-26T01:41:46;-18734.38;;;18.65;99.45
60583;BME280;46415;47.536;19.066;2023-06-26T01:44:49;-18734.25;;;18.64;98.77
60583;BME280;46415;47.536;19.066;2023-06-26T01:47:57;-18736.69;;;18.73;97.72
60583;BME280;46415;47.536;19.066;2023-06-26T01:51:00;-18736.16;;;18.71;97.77
60583;BME280;46415;47.536;19.066;2023-06-26T01:54:05;-18735.87;;;18.70;97.10
60583;BME280;46415;47.536;19.066;2023-06-26T01:57:11;-18735.59;;;18.69;95.60
60583;BME280;46415;47.536;19.066;2023-06-26T02:00:19;-18738.06;;;18.79;94.00
60583;BME280;46415;47.536;19.066;2023-06-26T02:03:24;-18736.16;;;18.71;94.89
60583;BME280;46415;47.536;19.066;2023-06-26T02:06:27;-18733.56;;;18.62;96.26
60583;BME280;46415;47.536;19.066;2023-06-26T02:09:30;-18733.56;;;18.62;97.27
60583;BME280;46415;47.536;19.066;2023-06-26T02:12:32;-18736.16;;;18.71;95.12
60583;BME280;46415;47.536;19.066;2023-06-26T02:15:35;-18735.75;;;18.70;95.51
60583;BME280;46415;47.536;19.066;2023-06-26T02:18:38;-18733.03;;;18.60;97.74
60583;BME280;46415;47.536;19.066;2023-06-26T02:21:41;-18732.22;;;18.57;97.63
60583;BME280;46415;47.536;19.066;2023-06-26T02:24:44;-18730.16;;;18.49;98.94
60583;BME280;46415;47.536;19.066;2023-06-26T02:27:46;-18729.22;;;18.46;100.00
60583;BME280;46415;47.536;19.066;2023-06-26T02:30:50;-18730.31;;;18.50;100.00
60583;BME280;46415;47.536;19.066;2023-06-26T02:33:53;-18728.94;;;18.45;100.00
60583;BME280;46415;47.536;19.066;2023-06-26T02:36:56;-18727.31;;;18.39;100.00
60583;BME280;46415;47.536;19.066;2023-06-26T02:39:58;-18725.13;;;18.30;100.00
60583;BME280;46415;47.536;19.066;2023-06-26T02:43:01;-18724.03;;;18.26;100.00
60583;BME280;46415;47.536;19.066;2023-06-26T02:46:06;-18724.84;;;18.29;100.00
60583;BME280;46415;47.536;19.066;2023-06-26T02:49:09;-18723.91;;;18.26;100.00
60583;BME280;46415;47.536;19.066;2023-06-26T02:52:11;-18722.97;;;18.22;100.00
60583;BME280;46415;47.536;19.066;2023-06-26T02:55:14;-18722.28;;;18.20;100.00
60583;BME280;46415;47.536;19.066;2023-06-26T02:58:17;-18723.62;;;18.25;100.00
60583;BME280;46415;47.536;19.066;2023-06-26T03:01:20;-18723.22;;;18.23;100.00
60583;BME280;46415;47.536;19.066;2023-06-26T03:04:23;-18721.59;;;18.17;100.00
60583;BME280;46415;47.536;19.066;2023-06-26T03:07:27;-18720.66;;;18.14;100.00
60583;BME280;46415;47.536;19.066;2023-06-26T03:10:30;-18720.66;;;18.14;100.00
60583;BME280;46415;47.536;19.066;2023-06-26T03:13:36;-18718.19;;;18.05;100.00
60583;BME280;46415;47.536;19.066;2023-06-26T03:16:39;-18716.28;;;17.98;100.00
60583;BME280;46415;47.536;19.066;2023-06-26T03:19:42;-18716.84;;;18.00;100.00
60583;BME280;46415;47.536;19.066;2023-06-26T03:22:45;-18717.53;;;18.02;100.00
60583;BME280;46415;47.536;19.066;2023-06-26T03:25:49;-18719.41;;;18.09;100.00
60583;BME280;46415;47.536;19.066;2023-06-26T03:28:53;-18718.88;;;18.07;100.00
60583;BME280;46415;47.536;19.066;2023-06-26T03:31:56;-18717.53;;;18.02;100.00
60583;BME280;46415;47.536;19.066;2023-06-26T03:34:59;-18718.75;;;18.07;100.00
60583;BME280;46415;47.536;19.066;2023-06-26T03:38:09;-18720.38;;;18.13;100.00
60583;BME280;46415;47.536;19.066;2023-06-26T03:41:12;-18718.88;;;18.07;100.00
60583;BME280;46415;47.536;19.066;2023-06-26T03:44:16;-18716.44;;;17.98;100.00
60583;BME280;46415;47.536;19.066;2023-06-26T03:47:19;-18715.63;;;17.95;100.00
60583;BME280;46415;47.536;19.066;2023-06-26T03:50:22;-18715.88;;;17.96;100.00
60583;BME280;46415;47.536;19.066;2023-06-26T03:53:25;-18716.28;;;17.98;100.00
60583;BME280;46415;47.536;19.066;2023-06-26T03:56:28;-18718.47;;;18.06;100.00
60583;BME280;46415;47.536;19.066;2023-06-26T03:59:30;-18718.88;;;18.07;100.00
60583;BME280;46415;47.536;19.066;2023-06-26T04:02:34;-18718.34;;;18.05;100.00
60583;BME280;46415;47.536;19.066;2023-06-26T04:05:37;-18720.38;;;18.13;100.00
60583;BME280;46415;47.536;19.066;2023-06-26T04:08:40;-18722.97;;;18.22;100.00
60583;BME280;46415;47.536;19.066;2023-06-26T04:11:43;-18728.94;;;18.45;100.00
60583;BME280;46415;47.536;19.066;2023-06-26T04:14:45;-18725.69;;;18.32;100.00
60583;BME280;46415;47.536;19.066;2023-06-26T04:17:48;-18726.22;;;18.34;100.00
60583;BME280;46415;47.536;19.066;2023-06-26T04:21:11;-18724.31;;;18.27;100.00
60583;BME280;46415;47.536;19.066;2023-06-26T04:24:14;-18722.28;;;18.20;100.00
60583;BME280;46415;47.536;19.066;2023-06-26T04:27:17;-18721.72;;;18.18;100.00
60583;BME280;46415;47.536;19.066;2023-06-26T04:30:20;-18727.31;;;18.39;100.00
60583;BME280;46415;47.536;19.066;2023-06-26T04:33:24;-18731.66;;;18.55;99.65
60583;BME280;46415;47.536;19.066;2023-06-26T04:36:28;-18737.50;;;18.77;98.10
60583;BME280;46415;47.536;19.066;2023-06-26T04:39:31;-18741.03;;;18.90;96.73
60583;BME280;46415;47.536;19.066;2023-06-26T04:42:33;-18743.62;;;18.99;95.83
60583;BME280;46415;47.536;19.066;2023-06-26T04:45:36;-18748.12;;;19.16;94.38
60583;BME280;46415;47.536;19.066;2023-06-26T04:48:39;-18751.91;;;19.30;93.24
60583;BME280;46415;47.536;19.066;2023-06-26T04:51:42;-18755.03;;;19.42;93.26
60583;BME280;46415;47.536;19.066;2023-06-26T04:54:45;-18758.84;;;19.56;93.07
60583;BME280;46415;47.536;19.066;2023-06-26T04:57:47;-18761.03;;;19.64;90.58
60583;BME280;46415;47.536;19.066;2023-06-26T05:00:50;-18765.09;;;19.79;91.42
60583;BME280;46415;47.536;19.066;2023-06-26T05:03:53;-18768.09;;;19.90;90.10
60583;BME280;46415;47.536;19.066;2023-06-26T05:06:56;-18772.97;;;20.09;90.14
60583;BME280;46415;47.536;19.066;2023-06-26T05:09:59;-18778.53;;;20.29;87.97
60583;BME280;46415;47.536;19.066;2023-06-26T05:13:02;-18779.63;;;20.33;89.98
60583;BME280;46415;47.536;19.066;2023-06-26T05:16:05;-18784.50;;;20.52;87.73
60583;BME280;46415;47.536;19.066;2023-06-26T05:19:08;-18786.41;;;20.59;88.90
60583;BME280;46415;47.536;19.066;2023-06-26T05:22:12;-18789.81;;;20.71;87.95
60583;BME280;46415;47.536;19.066;2023-06-26T05:25:15;-18794.81;;;20.90;86.67
60583;BME280;46415;47.536;19.066;2023-06-26T05:28:18;-18795.22;;;20.92;88.40
60583;BME280;46415;47.536;19.066;2023-06-26T05:31:21;-18798.63;;;21.04;88.73
60583;BME280;46415;47.536;19.066;2023-06-26T05:34:24;-18804.84;;;21.28;86.94
60583;BME280;46415;47.536;19.066;2023-06-26T05:37:31;-18806.91;;;21.35;85.50
60583;BME280;46415;47.536;19.066;2023-06-26T05:40:34;-18808.94;;;21.43;84.69
60583;BME280;46415;47.536;19.066;2023-06-26T05:43:38;-18810.56;;;21.49;84.21
60583;BME280;46415;47.536;19.066;2023-06-26T05:46:40;-18816.38;;;21.71;83.55
60583;BME280;46415;47.536;19.066;2023-06-26T05:49:43;-18818.69;;;21.79;80.73
60583;BME280;46415;47.536;19.066;2023-06-26T05:52:46;-18821.25;;;21.89;82.63
60583;BME280;46415;47.536;19.066;2023-06-26T05:55:49;-18826.16;;;22.07;82.13
60583;BME280;46415;47.536;19.066;2023-06-26T05:58:52;-18830.22;;;22.22;80.99
60583;BME280;46415;47.536;19.066;2023-06-26T06:01:55;-18831.84;;;22.28;81.24
60583;BME280;46415;47.536;19.066;2023-06-26T06:04:58;-18838.34;;;22.53;81.97
60583;BME280;46415;47.536;19.066;2023-06-26T06:08:01;-18842.53;;;22.68;79.94
60583;BME280;46415;47.536;19.066;2023-06-26T06:11:04;-18841.84;;;22.66;80.48
60583;BME280;46415;47.536;19.066;2023-06-26T06:14:07;-18843.47;;;22.72;82.26
60583;BME280;46415;47.536;19.066;2023-06-26T06:17:10;-18846.19;;;22.82;81.94
60583;BME280;46415;47.536;19.066;2023-06-26T06:20:13;-18850.66;;;22.99;79.03
60583;BME280;46415;47.536;19.066;2023-06-26T06:23:16;-18855.41;;;23.16;80.01
60583;BME280;46415;47.536;19.066;2023-06-26T06:26:18;-18852.56;;;23.06;81.04
60583;BME280;46415;47.536;19.066;2023-06-26T06:29:21;-18852.56;;;23.06;80.52
60583;BME280;46415;47.536;19.066;2023-06-26T06:32:24;-18857.16;;;23.23;77.78
60583;BME280;46415;47.536;19.066;2023-06-26T06:35:27;-18858.91;;;23.30;78.78
60583;BME280;46415;47.536;19.066;2023-06-26T06:38:32;-18864.88;;;23.52;78.68
60583;BME280;46415;47.536;19.066;2023-06-26T06:41:35;-18867.84;;;23.63;73.72
60583;BME280;46415;47.536;19.066;2023-06-26T06:44:40;-18863.38;;;23.46;72.40
60583;BME280;46415;47.536;19.066;2023-06-26T06:47:43;-18867.59;;;23.62;72.59
60583;BME280;46415;47.536;19.066;2023-06-26T06:50:46;-18870.00;;;23.71;70.52
60583;BME280;46415;47.536;19.066;2023-06-26T06:53:48;-18872.19;;;23.79;70.96
60583;BME280;46415;47.536;19.066;2023-06-26T06:56:51;-18876.78;;;23.96;68.51
60583;BME280;46415;47.536;19.066;2023-06-26T06:59:54;-18878.66;;;24.04;70.37
60583;BME280;46415;47.536;19.066;2023-06-26T07:02:57;-18880.97;;;24.12;69.28
60583;BME280;46415;47.536;19.066;2023-06-26T07:06:01;-18888.69;;;24.41;68.40
60583;BME280;46415;47.536;19.066;2023-06-26T07:09:06;-18889.09;;;24.43;66.92
60583;BME280;46415;47.536;19.066;2023-06-26T07:12:09;-18889.34;;;24.44;64.50
60583;BME280;46415;47.536;19.066;2023-06-26T07:15:12;-18885.97;;;24.31;65.37
60583;BME280;46415;47.536;19.066;2023-06-26T07:18:15;-18880.69;;;24.11;65.29
60583;BME280;46415;47.536;19.066;2023-06-26T07:21:19;-18889.75;;;24.45;65.55
60583;BME280;46415;47.536;19.066;2023-06-26T07:24:22;-18894.63;;;24.63;64.42
60583;BME280;46415;47.536;19.066;2023-06-26T07:27:25;-18898.41;;;24.77;64.57
60583;BME280;46415;47.536;19.066;2023-06-26T07:30:28;-18903.28;;;24.96;61.59
60583;BME280;46415;47.536;19.066;2023-06-26T07:33:31;-18910.28;;;25.22;59.00
60583;BME280;46415;47.536;19.066;2023-06-26T07:36:34;-18913.25;;;25.33;58.06
60583;BME280;46415;47.536;19.066;2023-06-26T07:39:36;-18922.19;;;25.67;58.60
60583;BME280;46415;47.536;19.066;2023-06-26T07:42:39;-18924.59;;;25.76;56.30
60583;BME280;46415;47.536;19.066;2023-06-26T07:45:42;-18918.00;;;25.51;55.33
60583;BME280;46415;47.536;19.066;2023-06-26T07:48:45;-18914.34;;;25.37;55.84
60583;BME280;46415;47.536;19.066;2023-06-26T07:51:48;-18911.38;;;25.26;55.97
60583;BME280;46415;47.536;19.066;2023-06-26T07:54:51;-18910.56;;;25.23;55.89
60583;BME280;46415;47.536;19.066;2023-06-26T07:57:54;-18913.81;;;25.35;56.68
60583;BME280;46415;47.536;19.066;2023-06-26T08:00:57;-18921.22;;;25.63;56.65
60583;BME280;46415;47.536;19.066;2023-06-26T08:04:00;-18927.03;;;25.85;55.66
60583;BME280;46415;47.536;19.066;2023-06-26T08:07:03;-18930.69;;;25.98;56.17
60583;BME280;46415;47.536;19.066;2023-06-26T08:10:06;-18934.72;;;26.14;55.02
60583;BME280;46415;47.536;19.066;2023-06-26T08:13:09;-18939.88;;;26.33;53.35
60583;BME280;46415;47.536;19.066;2023-06-26T08:16:12;-18946.47;;;26.58;52.93
60583;BME280;46415;47.536;19.066;2023-06-26T08:19:16;-18935.28;;;26.16;52.41
60583;BME280;46415;47.536;19.066;2023-06-26T08:22:19;-18924.88;;;25.77;54.39
60583;BME280;46415;47.536;19.066;2023-06-26T08:25:22;-18917.59;;;25.49;55.21
60583;BME280;46415;47.536;19.066;2023-06-26T08:28:25;-18910.44;;;25.23;53.74
60583;BME280;46415;47.536;19.066;2023-06-26T08:31:27;-18905.16;;;25.03;55.08
60583;BME280;46415;47.536;19.066;2023-06-26T08:34:30;-18908.81;;;25.16;55.27
60583;BME280;46415;47.536;19.066;2023-06-26T08:37:33;-18911.09;;;25.25;54.90
60583;BME280;46415;47.536;19.066;2023-06-26T08:40:36;-18913.94;;;25.36;54.79
60583;BME280;46415;47.536;19.066;2023-06-26T08:43:40;-18928.53;;;25.90;54.32
60583;BME280;46415;47.536;19.066;2023-06-26T08:46:43;-18934.87;;;26.14;51.82
60583;BME280;46415;47.536;19.066;2023-06-26T08:56:03;-18955.91;;;26.93;50.18
60583;BME280;46415;47.536;19.066;2023-06-26T08:59:07;-18963.06;;;27.20;47.73
60583;BME280;46415;47.536;19.066;2023-06-26T09:02:12;-18956.72;;;26.96;47.71
60583;BME280;46415;47.536;19.066;2023-06-26T09:05:15;-18967.50;;;27.37;48.18
60583;BME280;46415;47.536;19.066;2023-06-26T09:08:18;-18977.59;;;27.75;47.25
60583;BME280;46415;47.536;19.066;2023-06-26T09:11:21;-18983.53;;;27.97;45.53
60583;BME280;46415;47.536;19.066;2023-06-26T09:14:24;-18984.88;;;28.02;45.78
60583;BME280;46415;47.536;19.066;2023-06-26T09:17:33;-18987.28;;;28.11;46.67
60583;BME280;46415;47.536;19.066;2023-06-26T09:20:36;-18987.16;;;28.11;45.58
60583;BME280;46415;47.536;19.066;2023-06-26T09:23:40;-18987.44;;;28.12;44.82
60583;BME280;46415;47.536;19.066;2023-06-26T09:26:44;-18993.50;;;28.34;45.79
60583;BME280;46415;47.536;19.066;2023-06-26T09:29:48;-18997.78;;;28.51;45.10
60583;BME280;46415;47.536;19.066;2023-06-26T09:32:50;-18994.69;;;28.39;45.55
60583;BME280;46415;47.536;19.066;2023-06-26T09:35:54;-19001.97;;;28.66;43.60
60583;BME280;46415;47.536;19.066;2023-06-26T09:38:56;-19009.09;;;28.93;44.30
60583;BME280;46415;47.536;19.066;2023-06-26T09:41:59;-19009.50;;;28.95;43.78
60583;BME280;46415;47.536;19.066;2023-06-26T09:45:17;-19010.97;;;29.00;41.80
60583;BME280;46415;47.536;19.066;2023-06-26T09:48:21;-19010.31;;;28.98;42.64
60583;BME280;46415;47.536;19.066;2023-06-26T09:51:24;-19015.28;;;29.16;42.03
60583;BME280;46415;47.536;19.066;2023-06-26T09:54:27;-19016.50;;;29.21;42.46
60583;BME280;46415;47.536;19.066;2023-06-26T09:57:34;-19014.63;;;29.14;40.97
60583;BME280;46415;47.536;19.066;2023-06-26T10:00:37;-19023.50;;;29.47;41.48
60583;BME280;46415;47.536;19.066;2023-06-26T10:03:41;-19023.63;;;29.48;41.24
60583;BME280;46415;47.536;19.066;2023-06-26T10:06:46;-19017.44;;;29.25;42.99
60583;BME280;46415;47.536;19.066;2023-06-26T10:09:51;-19017.72;;;29.26;42.58
60583;BME280;46415;47.536;19.066;2023-06-26T10:13:00;-19012.19;;;29.05;43.93
60583;BME280;46415;47.536;19.066;2023-06-26T10:16:07;-19014.06;;;29.12;42.36
60583;BME280;46415;47.536;19.066;2023-06-26T10:19:13;-19009.09;;;28.93;43.01
60583;BME280;46415;47.536;19.066;2023-06-26T10:22:18;-19019.59;;;29.33;43.92
60583;BME280;46415;47.536;19.066;2023-06-26T10:25:23;-19024.28;;;29.50;43.15
60583;BME280;46415;47.536;19.066;2023-06-26T10:28:28;-19027.25;;;29.61;42.11
60583;BME280;46415;47.536;19.066;2023-06-26T10:31:33;-19021.06;;;29.38;41.73
60583;BME280;46415;47.536;19.066;2023-06-26T10:34:37;-19022.28;;;29.43;42.05
60583;BME280;46415;47.536;19.066;2023-06-26T10:37:49;-19022.81;;;29.45;42.41
60583;BME280;46415;47.536;19.066;2023-06-26T10:40:53;-19028.88;;;29.68;42.21
60583;BME280;46415;47.536;19.066;2023-06-26T10:47:05;-19019.06;;;29.31;41.21
60583;BME280;46415;47.536;19.066;2023-06-26T10:50:24;-19026.72;;;29.59;40.91
60583;BME280;46415;47.536;19.066;2023-06-26T10:53:27;-19029.81;;;29.71;41.14
60583;BME280;46415;47.536;19.066;2023-06-26T10:56:53;-19032.63;;;29.82;40.76
60583;BME280;46415;47.536;19.066;2023-06-26T11:00:09;-19045.38;;;30.30;41.75
60583;BME280;46415;47.536;19.066;2023-06-26T11:03:23;-19057.34;;;30.75;39.15
60583;BME280;46415;47.536;19.066;2023-06-26T11:06:26;-19062.84;;;30.96;38.55
60583;BME280;46415;47.536;19.066;2023-06-26T11:09:28;-19069.94;;;31.22;38.59
60583;BME280;46415;47.536;19.066;2023-06-26T11:15:39;-19071.97;;;31.30;37.85
60583;BME280;46415;47.536;19.066;2023-06-26T11:18:45;-19066.75;;;31.10;38.78
60583;BME280;46415;47.536;19.066;2023-06-26T11:21:48;-19069.69;;;31.21;38.51
60583;BME280;46415;47.536;19.066;2023-06-26T11:24:53;-19065.00;;;31.04;39.05
60583;BME280;46415;47.536;19.066;2023-06-26T11:27:56;-19062.31;;;30.94;39.12
60583;BME280;46415;47.536;19.066;2023-06-26T11:30:59;-19071.84;;;31.30;38.39
60583;BME280;46415;47.536;19.066;2023-06-26T11:34:04;-19073.16;;;31.35;37.11
60583;BME280;46415;47.536;19.066;2023-06-26T11:37:07;-19072.63;;;31.33;37.48
60583;BME280;46415;47.536;19.066;2023-06-26T11:40:19;-19065.53;;;31.06;37.24
60583;BME280;46415;47.536;19.066;2023-06-26T11:43:24;-19059.63;;;30.83;37.87
60583;BME280;46415;47.536;19.066;2023-06-26T11:46:27;-19063.38;;;30.98;39.16
60583;BME280;46415;47.536;19.066;2023-06-26T11:49:30;-19064.31;;;31.01;37.88
60583;BME280;46415;47.536;19.066;2023-06-26T11:52:33;-19063.91;;;31.00;38.80
60583;BME280;46415;47.536;19.066;2023-06-26T11:55:41;-19066.47;;;31.09;38.38
60583;BME280;46415;47.536;19.066;2023-06-26T11:59:02;-19064.44;;;31.02;37.57
60583;BME280;46415;47.536;19.066;2023-06-26T12:02:15;-19044.97;;;30.28;38.41
60583;BME280;46415;47.536;19.066;2023-06-26T12:05:19;-19050.09;;;30.48;38.86
60583;BME280;46415;47.536;19.066;2023-06-26T12:08:22;-19045.38;;;30.30;39.20
60583;BME280;46415;47.536;19.066;2023-06-26T12:11:25;-19044.72;;;30.27;39.10
60583;BME280;46415;47.536;19.066;2023-06-26T12:14:32;-19042.31;;;30.18;38.23
60583;BME280;46415;47.536;19.066;2023-06-26T12:17:37;-19040.97;;;30.13;38.33
60583;BME280;46415;47.536;19.066;2023-06-26T12:20:42;-19044.72;;;30.27;36.72
60583;BME280;46415;47.536;19.066;2023-06-26T12:23:44;-19046.88;;;30.35;37.53
60583;BME280;46415;47.536;19.066;2023-06-26T12:26:53;-19046.88;;;30.35;37.42
60583;BME280;46415;47.536;19.066;2023-06-26T12:29:56;-19057.88;;;30.77;36.91
60583;BME280;46415;47.536;19.066;2023-06-26T12:32:59;-19064.19;;;31.01;36.35
60583;BME280;46415;47.536;19.066;2023-06-26T12:36:02;-19069.41;;;31.20;36.97
60583;BME280;46415;47.536;19.066;2023-06-26T12:39:05;-19077.72;;;31.52;37.41
60583;BME280;46415;47.536;19.066;2023-06-26T12:42:08;-19074.25;;;31.39;36.33
60583;BME280;46415;47.536;19.066;2023-06-26T12:45:11;-19076.00;;;31.45;36.88
60583;BME280;46415;47.536;19.066;2023-06-26T12:48:40;-19069.16;;;31.19;36.84
60583;BME280;46415;47.536;19.066;2023-06-26T12:51:46;-19071.84;;;31.30;36.86
60583;BME280;46415;47.536;19.066;2023-06-26T12:54:53;-19072.63;;;31.33;35.80
60583;BME280;46415;47.536;19.066;2023-06-26T12:57:56;-19073.31;;;31.35;37.29
60583;BME280;46415;47.536;19.066;2023-06-26T13:00:59;-19076.38;;;31.47;37.20
60583;BME280;46415;47.536;19.066;2023-06-26T13:04:02;-19080.28;;;31.61;36.79
60583;BME280;46415;47.536;19.066;2023-06-26T13:07:07;-19069.94;;;31.22;37.25
60583;BME280;46415;47.536;19.066;2023-06-26T13:10:10;-19058.16;;;30.78;37.87
60583;BME280;46415;47.536;19.066;2023-06-26T13:13:13;-19043.66;;;30.23;38.62
60583;BME280;46415;47.536;19.066;2023-06-26T13:16:16;-19036.94;;;29.98;40.12
60583;BME280;46415;47.536;19.066;2023-06-26T13:19:19;-19030.47;;;29.74;39.75
60583;BME280;46415;47.536;19.066;2023-06-26T13:22:21;-19039.47;;;30.08;38.93
60583;BME280;46415;47.536;19.066;2023-06-26T13:25:24;-19048.22;;;30.40;38.42
60583;BME280;46415;47.536;19.066;2023-06-26T13:28:27;-19059.63;;;30.83;37.49
60583;BME280;46415;47.536;19.066;2023-06-26T13:31:30;-19067.53;;;31.13;37.88
60583;BME280;46415;47.536;19.066;2023-06-26T13:34:33;-19055.19;;;30.67;37.76
60583;BME280;46415;47.536;19.066;2023-06-26T13:37:36;-19058.41;;;30.79;37.26
60583;BME280;46415;47.536;19.066;2023-06-26T13:40:39;-19060.03;;;30.85;36.52
60583;BME280;46415;47.536;19.066;2023-06-26T13:43:42;-19048.06;;;30.40;36.88
60583;BME280;46415;47.536;19.066;2023-06-26T13:46:45;-19048.75;;;30.42;38.48
60583;BME280;46415;47.536;19.066;2023-06-26T13:49:48;-19054.13;;;30.63;37.50
60583;BME280;46415;47.536;19.066;2023-06-26T13:52:51;-19063.66;;;30.99;37.62
60583;BME280;46415;47.536;19.066;2023-06-26T13:55:54;-19064.44;;;31.02;38.37
60583;BME280;46415;47.536;19.066;2023-06-26T13:58:56;-19068.75;;;31.18;37.00
60583;BME280;46415;47.536;19.066;2023-06-26T14:02:00;-19056.25;;;30.71;38.01
60583;BME280;46415;47.536;19.066;2023-06-26T14:05:03;-19057.34;;;30.75;37.53
60583;BME280;46415;47.536;19.066;2023-06-26T14:08:08;-19058.41;;;30.79;38.51
60583;BME280;46415;47.536;19.066;2023-06-26T14:11:11;-19075.44;;;31.43;36.82
60583;BME280;46415;47.536;19.066;2023-06-26T14:14:13;-19081.63;;;31.67;36.37
60583;BME280;46415;47.536;19.066;2023-06-26T14:17:16;-19092.47;;;32.08;36.08
60583;BME280;46415;47.536;19.066;2023-06-26T14:20:19;-19104.41;;;32.53;35.61
60583;BME280;46415;47.536;19.066;2023-06-26T14:23:23;-19114.19;;;32.90;34.88
60583;BME280;46415;47.536;19.066;2023-06-26T14:26:29;-19120.06;;;33.12;34.85
60583;BME280;46415;47.536;19.066;2023-06-26T14:29:32;-19114.97;;;32.93;34.56
60583;BME280;46415;47.536;19.066;2023-06-26T14:32:35;-19125.41;;;33.32;35.40
60583;BME280;46415;47.536;19.066;2023-06-26T14:35:39;-19131.19;;;33.54;34.16
60583;BME280;46415;47.536;19.066;2023-06-26T14:38:41;-19138.53;;;33.82;33.22
60583;BME280;46415;47.536;19.066;2023-06-26T14:41:45;-19143.06;;;33.99;32.56
60583;BME280;46415;47.536;19.066;2023-06-26T14:44:48;-19148.28;;;34.19;32.37
60583;BME280;46415;47.536;19.066;2023-06-26T14:47:53;-19164.59;;;34.80;31.67
60583;BME280;46415;47.536;19.066;2023-06-26T14:50:56;-19187.41;;;35.67;31.48
60583;BME280;46415;47.536;19.066;2023-06-26T14:53:59;-19213.81;;;36.67;29.13
60583;BME280;46415;47.536;19.066;2023-06-26T14:57:08;-19232.47;;;37.38;27.26
60583;BME280;46415;47.536;19.066;2023-06-26T15:00:12;-19254.28;;;38.21;26.34
60583;BME280;46415;47.536;19.066;2023-06-26T15:03:15;-19289.63;;;39.56;24.75
60583;BME280;46415;47.536;19.066;2023-06-26T15:06:18;-19318.00;;;40.64;23.07
60583;BME280;46415;47.536;19.066;2023-06-26T15:09:21;-19339.31;;;41.46;22.19
60583;BME280;46415;47.536;19.066;2023-06-26T15:12:24;-19350.59;;;41.89;21.70
60583;BME280;46415;47.536;19.066;2023-06-26T15:15:26;-19352.97;;;41.98;21.18
60583;BME280;46415;47.536;19.066;2023-06-26T15:18:29;-19341.06;;;41.52;21.38
60583;BME280;46415;47.536;19.066;2023-06-26T15:21:32;-19360.91;;;42.28;20.60
60583;BME280;46415;47.536;19.066;2023-06-26T15:24:35;-19371.19;;;42.68;20.30
60583;BME280;46415;47.536;19.066;2023-06-26T15:27:37;-19380.19;;;43.02;19.63
60583;BME280;46415;47.536;19.066;2023-06-26T15:30:40;-19374.91;;;42.82;19.58
60583;BME280;46415;47.536;19.066;2023-06-26T15:33:43;-19405.13;;;43.98;18.92
60583;BME280;46415;47.536;19.066;2023-06-26T15:36:46;-19396.97;;;43.67;18.80
60583;BME280;46415;47.536;19.066;2023-06-26T15:39:48;-19370.69;;;42.66;19.36
60583;BME280;46415;47.536;19.066;2023-06-26T15:42:51;-19379.66;;;43.00;19.91
60583;BME280;46415;47.536;19.066;2023-06-26T15:45:57;-19348.19;;;41.80;20.81
60583;BME280;46415;47.536;19.066;2023-06-26T15:49:00;-19370.16;;;42.64;19.84
60583;BME280;46415;47.536;19.066;2023-06-26T15:52:03;-19372.66;;;42.73;19.60
60583;BME280;46415;47.536;19.066;2023-06-26T15:55:07;-19394.06;;;43.56;19.13
60583;BME280;46415;47.536;19.066;2023-06-26T15:58:11;-19377.28;;;42.91;19.13